New Braunfels, Texas
Current Conditions -  °F | °C
As of 6:51 PM on Thursday 27 Nov 2014 (Local Time) from KBAZ Reporting Station
Clear Clear  
Wind Chill: 54°   Ceiling: Unl
Heat Index: 54°   Visibility: 10mi
Dew Point: 33°   Wind: 5mph
Humidity: 45%   Direction: 80°E
Pressure: 30.39"   Gusts: NA
Location:  29.7°N, 98.12°W
Report Text: KBAZ 280051Z AUTO 08004KT 10SM CLR 12/01 A3039 RMK AO2 SLP291 T01220006
Loading
Personal Weather Stations






























Interactive Weather Map New forecast layout! Learn more

10-Day Weather Forecast

Advertisements
Track Severe Weather on mobile